createdAt,value
2018-01-31T01:53:42.259Z,6.03
2018-01-31T01:56:10.509Z,6.07
2018-01-31T01:58:38.344Z,6.11
2018-01-31T02:01:06.183Z,6.15
2018-01-31T02:03:34.371Z,6.15
2018-01-31T02:06:02.206Z,6.15
2018-01-31T02:08:30.038Z,6.11
2018-01-31T02:10:57.926Z,6.12
2018-01-31T02:13:25.764Z,6.13
2018-01-31T02:15:54.008Z,6.11
2018-01-31T02:18:22.826Z,6.16
2018-01-31T02:20:50.675Z,6.19
2018-01-31T02:23:18.510Z,6.16
2018-01-31T02:25:46.398Z,6.13
2018-01-31T02:28:14.230Z,6.12
2018-01-31T02:30:42.088Z,6.12
2018-01-31T02:33:09.966Z,6.14
2018-01-31T02:35:37.826Z,6.15
2018-01-31T02:38:05.718Z,6.15
2018-01-31T02:40:33.610Z,6.13
2018-01-31T02:43:01.453Z,6.03
2018-01-31T02:45:29.321Z,5.94
2018-01-31T02:47:57.447Z,5.79
2018-01-31T02:50:25.282Z,5.64
2018-01-31T02:52:53.284Z,5.56
2018-01-31T02:55:21.179Z,5.47
2018-01-31T02:57:49.029Z,5.35
2018-01-31T03:00:16.882Z,5.29
2018-01-31T03:02:45.446Z,5.27
2018-01-31T03:05:13.278Z,5.23
2018-01-31T03:07:41.123Z,5.17
2018-01-31T03:10:09.023Z,5.16
2018-01-31T03:12:36.886Z,5.18
2018-01-31T03:15:04.763Z,5.10
2018-01-31T03:17:33.410Z,5.08
2018-01-31T03:20:01.251Z,5.04
2018-01-31T03:22:29.075Z,5.06
2018-01-31T03:24:57.210Z,5.02
2018-01-31T03:27:25.052Z,4.99
2018-01-31T03:29:52.962Z,4.96
2018-01-31T03:32:20.828Z,4.84
2018-01-31T03:34:48.674Z,4.80
2018-01-31T03:37:16.502Z,4.75
2018-01-31T03:39:44.389Z,4.68
2018-01-31T03:42:12.215Z,4.62
2018-01-31T03:44:40.082Z,4.57
2018-01-31T03:47:07.986Z,4.51
2018-01-31T03:49:35.826Z,4.47
2018-01-31T03:52:03.661Z,4.54
2018-01-31T03:54:33.577Z,4.58
2018-01-31T03:57:01.425Z,4.55
2018-01-31T03:59:29.270Z,4.55
2018-01-31T04:01:57.735Z,4.59
2018-01-31T04:04:25.662Z,4.54
2018-01-31T04:06:53.491Z,4.49
2018-01-31T04:09:21.400Z,4.44
2018-01-31T04:11:49.223Z,4.39
2018-01-31T04:14:17.053Z,4.31
2018-01-31T04:16:44.954Z,4.21
2018-01-31T04:19:12.878Z,4.12
2018-01-31T04:21:40.726Z,4.08
2018-01-31T04:24:08.640Z,4.00
2018-01-31T04:26:36.474Z,3.94
2018-01-31T04:29:04.413Z,3.92
2018-01-31T04:31:32.311Z,3.93
2018-01-31T04:34:00.143Z,3.98
2018-01-31T04:36:27.967Z,4.04
2018-01-31T04:38:56.718Z,4.04
2018-01-31T04:41:24.555Z,4.02
2018-01-31T04:43:52.382Z,3.97
2018-01-31T04:46:20.271Z,3.94
2018-01-31T04:48:48.126Z,3.92
2018-01-31T04:51:15.979Z,3.88
2018-01-31T04:53:43.909Z,3.90
2018-01-31T04:56:11.761Z,3.94
2018-01-31T04:58:39.624Z,3.95
2018-01-31T05:01:07.553Z,4.01
2018-01-31T05:03:35.409Z,4.06
2018-01-31T05:06:03.252Z,4.11
2018-01-31T05:08:31.375Z,4.14
2018-01-31T05:10:59.196Z,4.15
2018-01-31T05:13:27.059Z,4.20
2018-01-31T05:15:54.942Z,4.27
2018-01-31T05:18:22.779Z,4.32
2018-01-31T05:20:50.907Z,4.33
2018-01-31T05:23:18.909Z,4.32
2018-01-31T05:25:46.730Z,4.32
2018-01-31T05:28:14.569Z,4.29
2018-01-31T05:30:42.495Z,4.21
2018-01-31T05:33:10.352Z,4.24
2018-01-31T05:35:38.194Z,4.30
2018-01-31T05:38:06.160Z,4.43
2018-01-31T05:40:34.032Z,4.55
2018-01-31T05:43:01.922Z,4.53
2018-01-31T05:45:30.018Z,4.45
2018-01-31T05:47:57.846Z,4.43
2018-01-31T05:50:25.690Z,4.46
2018-01-31T05:52:53.600Z,4.54
2018-01-31T05:55:21.443Z,4.66
2018-01-31T05:57:49.291Z,4.75
2018-01-31T06:00:17.203Z,4.95
2018-01-31T06:02:45.084Z,5.45
2018-01-31T06:05:13.203Z,6.03
2018-01-31T06:07:41.091Z,6.66
2018-01-31T06:10:08.964Z,7.21
2018-01-31T06:12:36.835Z,7.75
2018-01-31T06:15:04.817Z,8.21
2018-01-31T06:17:32.956Z,8.56
2018-01-31T06:20:00.818Z,9.09
2018-01-31T06:22:29.665Z,9.61
2018-01-31T06:24:57.530Z,10.02
2018-01-31T06:27:31.170Z,10.37
2018-01-31T06:29:58.828Z,10.86
2018-01-31T06:32:26.550Z,11.34
2018-01-31T06:34:54.319Z,11.74
2018-01-31T06:37:22.044Z,12.11
2018-01-31T06:39:49.708Z,12.79
2018-01-31T06:42:17.577Z,13.30
2018-01-31T06:44:45.293Z,13.79
2018-01-31T06:47:12.943Z,13.99
2018-01-31T06:52:30.833Z,14.02
2018-01-31T06:54:58.511Z,14.21
2018-01-31T06:57:27.089Z,14.26
2018-01-31T06:59:54.901Z,14.40
2018-01-31T07:02:22.600Z,14.53
2018-01-31T07:04:50.287Z,14.73
2018-01-31T07:07:18.007Z,14.76
2018-01-31T07:09:45.739Z,15.05
2018-01-31T07:12:13.405Z,15.32
2018-01-31T07:14:41.674Z,15.73
2018-01-31T07:17:09.396Z,15.99
2018-01-31T07:19:37.079Z,15.79
2018-01-31T07:22:04.979Z,15.83
2018-01-31T07:24:33.854Z,15.70
2018-01-31T07:27:01.544Z,15.78
2018-01-31T07:29:29.256Z,15.96
2018-01-31T07:31:56.911Z,16.21
2018-01-31T07:34:25.963Z,16.02
2018-01-31T07:36:53.707Z,16.31
2018-01-31T07:39:21.507Z,15.98
2018-01-31T07:41:49.228Z,15.77
2018-01-31T07:44:17.771Z,15.76
2018-01-31T07:46:45.439Z,15.63
2018-01-31T07:49:13.179Z,15.64
2018-01-31T07:51:40.901Z,15.64
2018-01-31T07:54:08.566Z,15.80
2018-01-31T07:56:36.221Z,15.78
2018-01-31T07:59:03.942Z,16.18
2018-01-31T08:01:31.616Z,16.09
2018-01-31T08:03:59.286Z,16.01
2018-01-31T08:06:27.048Z,16.03
2018-01-31T08:08:54.721Z,16.20
2018-01-31T08:11:22.535Z,16.06
2018-01-31T08:13:50.781Z,16.10
2018-01-31T08:16:19.231Z,16.07
2018-01-31T08:18:46.902Z,15.88
2018-01-31T08:21:14.809Z,16.23
2018-01-31T08:23:42.555Z,16.63
2018-01-31T08:26:10.435Z,16.63
2018-01-31T08:28:38.180Z,16.88
2018-01-31T08:31:05.810Z,17.04
2018-01-31T08:33:33.467Z,17.37
2018-01-31T08:36:01.913Z,17.56
2018-01-31T08:38:29.563Z,17.21
2018-01-31T08:40:57.235Z,17.30
2018-01-31T08:43:25.226Z,17.16
2018-01-31T08:45:52.894Z,17.17
2018-01-31T08:48:20.627Z,17.19
2018-01-31T08:50:48.375Z,17.40
2018-01-31T08:53:16.052Z,17.87
2018-01-31T08:55:43.782Z,17.75
2018-01-31T08:58:11.516Z,17.59
2018-01-31T09:00:39.212Z,17.62
2018-01-31T09:03:06.934Z,17.53
2018-01-31T09:05:34.962Z,17.84
2018-01-31T09:08:02.636Z,17.91
2018-01-31T09:10:30.390Z,18.09
2018-01-31T09:12:59.641Z,17.96
2018-01-31T09:15:27.321Z,18.25
2018-01-31T09:17:54.978Z,18.37
2018-01-31T09:20:22.718Z,18.92
2018-01-31T09:22:50.382Z,19.26
2018-01-31T09:25:18.058Z,19.26
2018-01-31T09:27:46.058Z,19.01
2018-01-31T09:30:13.729Z,18.55
2018-01-31T09:32:41.465Z,19.23
2018-01-31T09:35:09.900Z,19.02
2018-01-31T09:37:37.691Z,19.07
2018-01-31T09:40:05.349Z,18.91
2018-01-31T09:42:33.134Z,18.53
2018-01-31T09:45:00.809Z,18.57
2018-01-31T09:47:28.775Z,18.88
2018-01-31T09:49:57.150Z,17.63
2018-01-31T09:52:27.284Z,17.73
2018-01-31T09:54:55.021Z,18.27
2018-01-31T09:57:22.926Z,18.35
2018-01-31T09:59:50.630Z,18.84
2018-01-31T10:02:18.321Z,19.32
2018-01-31T10:04:46.135Z,18.31
2018-01-31T10:07:13.876Z,18.56
2018-01-31T10:09:41.531Z,19.52
2018-01-31T10:12:09.256Z,19.41
2018-01-31T10:14:36.942Z,18.68
2018-01-31T10:17:04.591Z,18.64
2018-01-31T10:19:32.325Z,18.76
2018-01-31T10:21:59.979Z,18.78
2018-01-31T10:24:27.647Z,18.61
2018-01-31T10:26:55.394Z,18.74
2018-01-31T10:29:23.494Z,18.99
2018-01-31T10:31:51.196Z,18.74
2018-01-31T10:34:19.191Z,19.07
2018-01-31T10:36:46.860Z,18.40
2018-01-31T10:39:14.556Z,18.28
2018-01-31T10:41:42.292Z,18.29
2018-01-31T10:44:10.022Z,18.07
2018-01-31T10:46:37.678Z,17.34
2018-01-31T10:49:05.375Z,17.24
2018-01-31T10:51:33.561Z,17.46
2018-01-31T10:58:57.736Z,17.23
2018-01-31T11:01:26.107Z,17.24
2018-01-31T11:03:53.927Z,17.04
2018-01-31T11:06:22.435Z,17.11
2018-01-31T11:08:50.167Z,17.19
2018-01-31T11:11:17.886Z,17.36
2018-01-31T11:13:45.554Z,17.62
2018-01-31T11:16:13.252Z,17.23
2018-01-31T11:18:40.960Z,17.64
2018-01-31T11:21:08.641Z,17.97
2018-01-31T11:23:36.528Z,17.84
2018-01-31T11:26:04.255Z,18.31
2018-01-31T11:28:31.983Z,18.17
2018-01-31T11:30:59.768Z,18.81
2018-01-31T11:33:27.504Z,19.59
2018-01-31T11:35:55.174Z,20.17
2018-01-31T11:38:22.852Z,20.47
2018-01-31T11:40:52.556Z,20.49
2018-01-31T11:43:20.239Z,20.02
2018-01-31T11:45:47.910Z,20.31
2018-01-31T11:48:15.954Z,19.86
2018-01-31T11:50:43.621Z,20.08
2018-01-31T11:53:11.196Z,20.44
2018-01-31T11:55:38.806Z,20.61
2018-01-31T11:58:06.381Z,20.86
2018-01-31T12:00:46.945Z,21.45
2018-01-31T12:03:14.609Z,21.63
2018-01-31T12:05:42.205Z,22.77
2018-01-31T12:08:09.883Z,23.03
2018-01-31T12:10:42.343Z,22.68
2018-01-31T12:13:21.976Z,22.94
2018-01-31T12:16:01.541Z,22.58
2018-01-31T12:18:41.856Z,22.67
2018-01-31T12:21:21.914Z,22.56
2018-01-31T12:24:01.449Z,22.25
2018-01-31T12:26:40.755Z,22.67
2018-01-31T12:29:30.939Z,23.01
2018-01-31T12:32:23.258Z,22.59
2018-01-31T12:35:02.577Z,21.92
2018-01-31T12:37:42.456Z,21.43
2018-01-31T12:40:09.513Z,21.66
2018-01-31T12:42:36.562Z,21.06
2018-01-31T12:45:03.580Z,21.15
2018-01-31T12:47:43.174Z,21.37
2018-01-31T12:50:22.642Z,21.77
2018-01-31T12:53:02.144Z,21.80
2018-01-31T12:55:41.408Z,21.44
2018-01-31T12:58:20.777Z,20.79
2018-01-31T13:01:10.941Z,21.57
2018-01-31T13:03:50.272Z,22.27
2018-01-31T13:06:29.539Z,21.75
2018-01-31T13:09:10.623Z,21.42
2018-01-31T13:11:50.447Z,21.37
2018-01-31T13:14:29.653Z,21.96
2018-01-31T13:17:09.217Z,21.63
2018-01-31T13:19:49.076Z,21.60
2018-01-31T13:22:28.567Z,21.52
2018-01-31T13:25:08.051Z,20.91
2018-01-31T13:27:53.055Z,21.05
2018-01-31T13:30:33.992Z,20.16
2018-01-31T13:33:19.445Z,19.81
2018-01-31T13:35:58.866Z,20.28
2018-01-31T13:38:39.322Z,20.20
2018-01-31T13:41:18.674Z,19.54
2018-01-31T13:43:58.018Z,18.94
2018-01-31T13:46:37.423Z,18.72
2018-01-31T13:49:28.722Z,18.60
2018-01-31T13:52:08.119Z,18.31
2018-01-31T13:54:47.451Z,17.81
2018-01-31T13:57:26.884Z,18.23
2018-01-31T14:00:06.706Z,18.49
2018-01-31T14:02:46.207Z,18.40
2018-01-31T14:05:26.037Z,17.87
2018-01-31T14:08:05.613Z,17.13
2018-01-31T14:10:44.991Z,16.42
2018-01-31T14:16:35.473Z,15.21
2018-01-31T14:19:14.855Z,14.82
2018-01-31T14:21:54.181Z,14.48
2018-01-31T14:24:33.608Z,14.30
2018-01-31T14:27:24.627Z,14.21
2018-01-31T14:30:04.010Z,14.00
2018-01-31T14:32:43.411Z,14.06
2018-01-31T14:35:23.080Z,14.01
2018-01-31T14:37:50.112Z,13.96
2018-01-31T14:40:17.174Z,13.97
2018-01-31T14:42:44.253Z,13.87
2018-01-31T14:45:11.313Z,13.87
2018-01-31T14:47:38.436Z,13.83
2018-01-31T14:50:05.591Z,13.78
2018-01-31T14:52:32.703Z,13.83
2018-01-31T14:54:59.750Z,13.84
2018-01-31T14:57:26.865Z,13.84
2018-01-31T14:59:53.887Z,13.85
2018-01-31T15:02:21.056Z,13.87
2018-01-31T15:04:48.156Z,13.84
2018-01-31T15:07:15.193Z,13.79
2018-01-31T15:09:42.241Z,13.73
2018-01-31T15:12:09.550Z,13.62
2018-01-31T15:14:36.558Z,13.41
2018-01-31T15:17:03.641Z,13.10
2018-01-31T15:19:30.899Z,12.88
2018-01-31T15:21:57.943Z,12.65
2018-01-31T15:24:24.963Z,12.39
2018-01-31T15:26:52.070Z,12.26
2018-01-31T15:29:19.105Z,12.02
2018-01-31T15:31:46.209Z,11.60
2018-01-31T15:34:13.314Z,11.46
2018-01-31T15:36:40.465Z,11.24
2018-01-31T15:39:07.541Z,11.08
2018-01-31T15:41:34.812Z,10.95
2018-01-31T15:44:01.922Z,10.72
2018-01-31T15:46:29.176Z,10.60
2018-01-31T15:48:56.587Z,10.46
2018-01-31T15:51:23.767Z,10.38
2018-01-31T15:53:50.858Z,10.33
2018-01-31T15:56:18.081Z,10.27
2018-01-31T15:58:45.312Z,10.20
2018-01-31T16:01:12.364Z,10.14
2018-01-31T16:03:39.622Z,10.08
2018-01-31T16:06:06.728Z,9.94
2018-01-31T16:08:33.821Z,9.79
2018-01-31T16:11:01.801Z,9.68
2018-01-31T16:13:28.839Z,9.60
2018-01-31T16:15:55.925Z,9.51
2018-01-31T16:18:35.493Z,9.34
2018-01-31T16:21:15.013Z,9.23
2018-01-31T16:23:42.870Z,9.17
2018-01-31T16:26:10.753Z,9.17
2018-01-31T16:28:51.434Z,9.18
2018-01-31T16:31:19.396Z,9.16
2018-01-31T16:33:47.292Z,9.17
2018-01-31T16:36:15.215Z,9.18
2018-01-31T16:38:43.151Z,9.12
2018-01-31T16:41:11.066Z,9.05
2018-01-31T16:43:38.966Z,9.02
2018-01-31T16:46:07.109Z,9.01
2018-01-31T16:48:34.965Z,9.01
2018-01-31T16:51:02.935Z,8.95
2018-01-31T16:53:30.808Z,8.82
2018-01-31T16:55:58.742Z,8.68
2018-01-31T16:58:26.664Z,8.56
2018-01-31T17:00:54.537Z,8.44
2018-01-31T17:03:22.400Z,8.35
2018-01-31T17:05:50.524Z,8.26
2018-01-31T17:08:18.437Z,8.15
2018-01-31T17:10:46.305Z,8.12
2018-01-31T17:13:14.347Z,8.15
2018-01-31T17:15:42.287Z,8.17
2018-01-31T17:18:10.189Z,8.18
2018-01-31T17:20:38.193Z,8.10
2018-01-31T17:23:06.123Z,8.09
2018-01-31T17:25:34.665Z,8.10
2018-01-31T17:28:02.653Z,8.13
2018-01-31T17:30:30.651Z,8.14
2018-01-31T17:32:58.565Z,8.11
2018-01-31T17:35:26.559Z,8.13
2018-01-31T17:37:54.511Z,8.11
2018-01-31T17:40:22.526Z,8.01
2018-01-31T17:42:50.547Z,7.90
2018-01-31T17:45:18.464Z,7.79
2018-01-31T17:47:46.382Z,7.68
2018-01-31T17:50:14.334Z,7.61
2018-01-31T17:52:42.218Z,7.57
2018-01-31T17:55:10.135Z,7.54
2018-01-31T17:57:38.134Z,7.57
2018-01-31T18:00:06.110Z,7.59
2018-01-31T18:02:33.984Z,7.62
2018-01-31T18:05:02.450Z,7.64
2018-01-31T18:07:30.306Z,7.68
2018-01-31T18:09:58.201Z,7.71
2018-01-31T18:12:26.155Z,7.72
2018-01-31T18:14:54.042Z,7.68
2018-01-31T18:17:21.927Z,7.71
2018-01-31T18:19:50.010Z,7.76
2018-01-31T18:22:17.948Z,7.83
2018-01-31T18:24:46.404Z,7.79
2018-01-31T18:27:14.387Z,7.80
2018-01-31T18:29:43.048Z,7.79
2018-01-31T18:32:10.928Z,7.78
2018-01-31T18:34:38.861Z,7.71
2018-01-31T18:37:06.853Z,7.64
2018-01-31T18:39:34.810Z,7.56
2018-01-31T18:42:03.128Z,7.48
2018-01-31T18:44:31.304Z,7.45
2018-01-31T18:47:00.314Z,7.47
2018-01-31T18:49:28.389Z,7.48
2018-01-31T18:51:56.479Z,7.48
2018-01-31T18:54:24.378Z,7.48
2018-01-31T18:56:52.449Z,7.47
2018-01-31T18:59:20.926Z,7.48
2018-01-31T19:01:48.867Z,7.46
2018-01-31T19:04:16.859Z,7.40
2018-01-31T19:06:44.829Z,7.34
2018-01-31T19:09:12.807Z,7.30
2018-01-31T19:11:40.762Z,7.31
2018-01-31T19:14:08.805Z,7.32
2018-01-31T19:16:36.714Z,7.34
2018-01-31T19:19:04.701Z,7.38
2018-01-31T19:21:32.665Z,7.40
2018-01-31T19:24:00.563Z,7.44
2018-01-31T19:26:28.609Z,7.46
2018-01-31T19:28:56.571Z,7.45
2018-01-31T19:31:24.454Z,7.44
2018-01-31T19:33:52.569Z,7.46
2018-01-31T19:36:20.458Z,7.47
2018-01-31T19:38:48.482Z,7.45
2018-01-31T19:41:16.684Z,7.40
2018-01-31T19:43:45.522Z,7.38
2018-01-31T19:46:13.435Z,7.30
2018-01-31T19:48:41.411Z,7.27
2018-01-31T19:51:09.399Z,7.30
2018-01-31T19:53:37.347Z,7.29
2018-01-31T19:56:05.329Z,7.29
2018-01-31T19:58:33.220Z,7.27
2018-01-31T20:01:02.151Z,7.24
2018-01-31T20:03:30.204Z,7.18
2018-01-31T20:05:58.152Z,7.10
2018-01-31T20:08:26.035Z,6.99
2018-01-31T20:10:53.957Z,6.86
2018-01-31T20:13:21.826Z,6.72
2018-01-31T20:15:49.703Z,6.65
2018-01-31T20:18:17.950Z,6.63
2018-01-31T20:20:45.876Z,6.65
2018-01-31T20:23:14.495Z,6.70
2018-01-31T20:25:42.454Z,6.71
2018-01-31T20:28:10.350Z,6.76
2018-01-31T20:30:38.228Z,6.82
2018-01-31T20:33:06.175Z,6.89
2018-01-31T20:35:34.139Z,6.95
2018-01-31T20:38:02.054Z,6.99
2018-01-31T20:40:30.023Z,7.02
2018-01-31T20:42:57.947Z,7.05
2018-01-31T20:45:26.216Z,7.12
2018-01-31T20:47:54.455Z,7.18
2018-01-31T20:50:22.315Z,7.23
2018-01-31T20:52:50.299Z,7.25
2018-01-31T20:55:18.279Z,7.31
2018-01-31T20:57:46.193Z,7.33
2018-01-31T21:00:14.126Z,7.37
2018-01-31T21:02:42.934Z,7.42
2018-01-31T21:05:10.796Z,7.46
2018-01-31T21:07:38.720Z,7.47
2018-01-31T21:10:06.631Z,7.48
2018-01-31T21:12:34.486Z,7.52
2018-01-31T21:15:02.921Z,7.54
2018-01-31T21:17:30.937Z,7.53
2018-01-31T21:19:58.810Z,7.52
2018-01-31T21:22:26.829Z,7.52
2018-01-31T21:24:55.058Z,7.48
2018-01-31T21:27:22.928Z,7.38
2018-01-31T21:29:50.832Z,7.31
2018-01-31T21:32:18.770Z,7.26
2018-01-31T21:34:46.613Z,7.18
2018-01-31T21:37:14.544Z,7.17
2018-01-31T21:39:42.487Z,7.13
2018-01-31T21:42:10.365Z,7.13
2018-01-31T21:44:38.226Z,7.11
2018-01-31T21:47:06.878Z,7.06
2018-01-31T21:49:34.590Z,7.00
2018-01-31T21:52:02.263Z,6.85
2018-01-31T21:54:29.958Z,6.68
2018-01-31T21:56:57.593Z,6.64
2018-01-31T21:59:25.188Z,6.61
2018-01-31T22:01:53.105Z,6.56
2018-01-31T22:04:20.731Z,6.45
2018-01-31T22:06:48.321Z,6.30
2018-01-31T22:09:15.973Z,6.18
2018-01-31T22:11:44.269Z,6.07
2018-01-31T22:14:12.421Z,6.06
2018-01-31T22:16:40.110Z,6.09
2018-01-31T22:19:07.738Z,6.12
2018-01-31T22:21:35.337Z,6.17
2018-01-31T22:24:03.049Z,6.22
2018-01-31T22:26:30.636Z,6.27
2018-01-31T22:28:58.257Z,6.31
2018-01-31T22:31:26.588Z,6.34
2018-01-31T22:33:54.205Z,6.36
2018-01-31T22:36:21.798Z,6.39
2018-01-31T22:38:49.452Z,6.45
2018-01-31T22:41:17.040Z,6.47
2018-01-31T22:43:44.621Z,6.50
2018-01-31T22:46:12.228Z,6.56
2018-01-31T22:48:40.170Z,6.59
2018-01-31T22:51:08.349Z,6.61
2018-01-31T22:53:36.072Z,6.66
2018-01-31T22:56:03.664Z,6.68
2018-01-31T22:58:31.269Z,6.71
2018-01-31T23:00:58.897Z,6.73
2018-01-31T23:03:26.495Z,6.76
2018-01-31T23:05:54.157Z,6.72
2018-01-31T23:08:22.904Z,6.62
2018-01-31T23:10:50.471Z,6.50
2018-01-31T23:13:18.986Z,6.42
2018-01-31T23:15:46.610Z,6.37
2018-01-31T23:18:18.642Z,6.36
2018-01-31T23:20:46.301Z,6.38
2018-01-31T23:23:13.957Z,6.37
2018-01-31T23:25:41.613Z,6.28
2018-01-31T23:28:09.193Z,6.16
2018-01-31T23:30:36.918Z,6.03
2018-01-31T23:33:04.525Z,5.91
2018-01-31T23:35:32.118Z,5.81
2018-01-31T23:37:59.758Z,5.71
2018-01-31T23:40:27.349Z,5.62
2018-01-31T23:42:54.958Z,5.52
2018-01-31T23:45:22.796Z,5.38
2018-01-31T23:47:50.377Z,5.29
2018-01-31T23:50:18.051Z,5.22
2018-01-31T23:52:45.717Z,5.18
2018-01-31T23:55:13.309Z,5.15
2018-01-31T23:57:41.521Z,5.03
